Time;durP1;ratioP1;P1;durP2;ratioP2;P2;SDS_P1;SDS_P2;PMS_P1;PMS_P2;Temp;Humidity;BMP_temperature;BMP_pressure;BME280_temperature;BME280_humidity;BME280_pressure;Samples;Min_cycle;Max_cycle;Signal;HPM_P1;HPM_P2
2023/04/16 00:01:15;;;;;;;0.10;0.10;;;;;;;10.94;67.26;102384.50;5064875;28;20043;-84
2023/04/16 00:03:41;;;;;;;0.17;0.17;;;;;;;11.02;66.11;102385.41;5062882;28;20239;-84
2023/04/16 00:06:09;;;;;;;0.10;0.10;;;;;;;11.02;65.77;102381.91;5057014;28;20048;-83
2023/04/16 00:08:36;;;;;;;0.22;0.22;;;;;;;10.84;67.84;102387.13;5067640;28;20036;-84
2023/04/16 00:11:02;;;;;;;0.10;0.10;;;;;;;10.90;67.75;102385.38;5062079;28;20033;-83
2023/04/16 00:13:28;;;;;;;0.10;0.10;;;;;;;10.86;68.17;102387.13;5060828;28;20056;-83
2023/04/16 00:15:54;;;;;;;1.15;1.15;;;;;;;10.83;67.73;102382.72;5056296;28;20098;-85
2023/04/16 00:18:20;;;;;;;0.13;0.13;;;;;;;10.71;68.81;102382.66;5055640;28;20040;-83
2023/04/16 00:20:48;;;;;;;0.10;0.10;;;;;;;10.73;69.06;102374.69;5055579;28;20048;-83
2023/04/16 00:23:14;;;;;;;1.95;1.85;;;;;;;10.65;69.67;102383.53;5056209;28;20017;-83
2023/04/16 00:25:41;;;;;;;0.10;0.10;;;;;;;10.58;69.96;102376.44;5051559;28;20060;-83
2023/04/16 00:28:07;;;;;;;0.40;0.40;;;;;;;10.62;70.75;102377.34;5058217;28;20059;-83
2023/04/16 00:30:34;;;;;;;0.10;0.10;;;;;;;10.55;71.73;102371.09;5056579;28;20037;-84
2023/04/16 00:33:00;;;;;;;0.30;0.30;;;;;;;10.64;70.82;102375.56;5057823;28;20040;-83
2023/04/16 00:35:26;;;;;;;0.10;0.10;;;;;;;10.61;71.22;102372.91;5057831;28;20017;-83
2023/04/16 00:37:52;;;;;;;0.10;0.10;;;;;;;10.61;71.05;102375.56;5059779;28;20116;-84
2023/04/16 00:40:18;;;;;;;0.10;0.10;;;;;;;10.57;71.26;102374.66;5059224;28;20157;-83
2023/04/16 00:42:45;;;;;;;0.10;0.10;;;;;;;10.49;71.08;102381.66;5051756;28;20443;-85
2023/04/16 00:45:11;;;;;;;0.10;0.10;;;;;;;10.54;70.89;102371.97;5058042;28;20032;-84
2023/04/16 00:47:38;;;;;;;0.10;0.10;;;;;;;10.54;70.90;102369.31;5057451;28;20036;-83
2023/04/16 00:50:05;;;;;;;0.10;0.10;;;;;;;10.48;71.49;102361.34;5056617;28;20036;-83
2023/04/16 00:52:33;;;;;;;0.10;0.10;;;;;;;10.52;71.16;102371.09;5051923;28;20280;-84
2023/04/16 00:54:59;;;;;;;0.10;0.10;;;;;;;10.52;70.82;102364.03;5051231;28;20044;-83
2023/04/16 00:57:26;;;;;;;0.10;0.10;;;;;;;10.49;71.07;102369.31;5057470;28;20678;-85
2023/04/16 00:59:53;;;;;;;0.03;0.03;;;;;;;10.48;71.51;102369.28;5058812;28;20056;-82
2023/04/16 01:02:19;;;;;;;0.10;0.10;;;;;;;10.57;70.91;102373.78;5057151;28;20040;-82
2023/04/16 01:04:46;;;;;;;0.10;0.10;;;;;;;10.51;71.26;102375.50;5056050;28;20052;-83
2023/04/16 01:07:12;;;;;;;0.20;0.20;;;;;;;10.55;70.66;102373.75;5053203;28;20078;-83
2023/04/16 01:09:38;;;;;;;0.10;0.10;;;;;;;10.49;70.80;102371.06;5058422;28;20028;-83
2023/04/16 01:12:04;;;;;;;0.10;0.10;;;;;;;10.46;71.19;102386.97;5051465;28;20445;-83
2023/04/16 01:14:35;;;;;;;2.83;0.73;;;;;;;10.48;71.20;102380.78;5052912;28;20044;-81
2023/04/16 01:17:01;;;;;;;0.30;0.30;;;;;;;10.48;71.53;102385.19;5046750;28;20028;-82
2023/04/16 01:19:30;;;;;;;0.10;0.10;;;;;;;10.53;70.39;102375.53;5049475;28;20506;-82
2023/04/16 01:21:57;;;;;;;0.10;0.10;;;;;;;10.52;70.71;102377.28;5056608;28;20033;-82
2023/04/16 01:24:23;;;;;;;0.43;0.43;;;;;;;10.58;70.41;102375.53;5055720;28;20048;-82
2023/04/16 01:26:49;;;;;;;0.17;0.17;;;;;;;10.50;71.24;102375.50;5057939;28;20029;-85
2023/04/16 01:29:15;;;;;;;0.10;0.10;;;;;;;10.56;70.65;102375.53;5057268;28;20036;-84
2023/04/16 01:31:41;;;;;;;0.10;0.10;;;;;;;10.55;71.03;102376.41;5056307;28;20093;-83
2023/04/16 01:34:07;;;;;;;0.10;0.10;;;;;;;10.56;70.74;102378.19;5055297;28;20032;-81
2023/04/16 01:36:34;;;;;;;0.50;0.50;;;;;;;10.54;71.19;102379.91;5058811;28;20036;-82
2023/04/16 01:39:00;;;;;;;0.08;0.08;;;;;;;10.51;71.42;102379.91;5060201;28;20055;-81
2023/04/16 01:41:26;;;;;;;0.05;0.05;;;;;;;10.60;70.90;102377.31;5057540;28;20123;-82
2023/04/16 01:43:52;;;;;;;0.10;0.10;;;;;;;10.67;70.29;102381.75;5058993;28;20547;-83
2023/04/16 01:46:27;;;;;;;0.20;0.20;;;;;;;10.63;70.68;102379.97;5056834;28;20090;-81
2023/04/16 01:48:54;;;;;;;0.10;0.10;;;;;;;10.62;70.67;102378.19;5059622;28;20032;-82
2023/04/16 01:51:20;;;;;;;0.55;0.55;;;;;;;10.58;70.93;102380.81;5056527;28;20029;-81
2023/04/16 01:53:47;;;;;;;0.10;0.10;;;;;;;10.65;70.58;102383.53;5057311;28;20044;-83
2023/04/16 01:56:13;;;;;;;0.10;0.10;;;;;;;10.71;70.45;102385.31;5053526;28;20033;-82
2023/04/16 01:58:40;;;;;;;0.10;0.10;;;;;;;10.71;70.34;102382.66;5049914;28;20434;-82
2023/04/16 02:01:06;;;;;;;0.20;0.20;;;;;;;10.60;70.61;102385.25;5051784;28;20039;-82
2023/04/16 02:03:32;;;;;;;0.10;0.10;;;;;;;10.66;70.71;102384.41;5057843;28;20033;-82
2023/04/16 02:05:58;;;;;;;0.57;0.57;;;;;;;10.58;70.63;102384.38;5057370;28;20043;-84
2023/04/16 02:08:25;;;;;;;0.10;0.10;;;;;;;10.64;70.73;102388.81;5053923;28;20041;-82
2023/04/16 02:10:52;;;;;;;0.35;0.35;;;;;;;10.63;71.16;102389.69;5058822;28;20110;-82
2023/04/16 02:13:18;;;;;;;0.20;0.20;;;;;;;10.59;71.03;102394.09;5058797;28;20116;-84
2023/04/16 02:15:47;;;;;;;0.57;0.57;;;;;;;10.60;71.02;102389.69;5053389;28;20404;-83
2023/04/16 02:18:14;;;;;;;0.45;0.45;;;;;;;10.60;70.98;102394.97;5058755;28;20029;-83
2023/04/16 02:20:42;;;;;;;0.10;0.10;;;;;;;10.56;71.03;102399.38;5057195;28;20036;-84
2023/04/16 02:23:09;;;;;;;0.10;0.10;;;;;;;10.52;71.62;102394.94;5053043;28;20036;-82
2023/04/16 02:25:44;;;;;;;0.20;0.20;;;;;;;10.65;70.71;102398.53;5056749;28;20035;-82
2023/04/16 02:28:12;;;;;;;1.08;1.08;;;;;;;10.57;71.48;102398.50;5066458;28;20017;-83
2023/04/16 02:30:39;;;;;;;0.10;0.10;;;;;;;10.56;71.43;102399.38;5057322;28;20040;-83
2023/04/16 02:33:07;;;;;;;0.20;0.20;;;;;;;10.63;71.39;102394.97;5056138;28;20029;-82
2023/04/16 02:35:34;;;;;;;0.10;0.10;;;;;;;10.59;71.03;102398.50;5051937;28;20044;-83
2023/04/16 02:38:01;;;;;;;0.10;0.10;;;;;;;10.58;71.23;102400.28;5055666;28;20060;-83
2023/04/16 02:40:27;;;;;;;0.10;0.10;;;;;;;10.55;71.18;102397.59;5059234;28;20032;-83
2023/04/16 02:42:53;;;;;;;0.10;0.10;;;;;;;10.57;71.01;102414.41;5057687;28;20159;-83
2023/04/16 02:45:20;;;;;;;1.08;1.08;;;;;;;10.48;71.45;102407.28;5054256;28;20051;-82
2023/04/16 02:47:47;;;;;;;0.10;0.10;;;;;;;10.55;71.04;102412.63;5051802;28;20029;-82
2023/04/16 02:50:13;;;;;;;1.27;1.17;;;;;;;10.50;71.25;102410.84;5042415;28;20037;-82
2023/04/16 02:52:39;;;;;;;0.10;0.10;;;;;;;10.52;71.44;102408.19;5049747;28;20112;-82
2023/04/16 02:55:06;;;;;;;0.00;0.00;;;;;;;10.58;71.07;102413.53;5057414;28;20037;-83
2023/04/16 02:57:33;;;;;;;0.10;0.10;;;;;;;10.61;70.91;102412.66;5056293;28;20047;-82
2023/04/16 02:59:59;;;;;;;2.90;2.30;;;;;;;10.55;71.16;102417.94;5050490;28;20034;-82
2023/04/16 03:02:26;;;;;;;0.15;0.15;;;;;;;10.53;71.47;102415.28;5053101;28;20029;-82
2023/04/16 03:04:52;;;;;;;0.20;0.20;;;;;;;10.55;71.44;102413.50;5049999;28;20038;-83
2023/04/16 03:07:18;;;;;;;0.63;0.63;;;;;;;10.57;71.38;102411.75;5051856;28;20498;-83
2023/04/16 03:09:44;;;;;;;0.30;0.30;;;;;;;10.52;71.46;102410.84;5051921;28;20021;-81
2023/04/16 03:12:11;;;;;;;0.10;0.10;;;;;;;10.53;71.24;102412.63;5056754;28;20033;-82
2023/04/16 03:14:37;;;;;;;0.10;0.10;;;;;;;10.50;71.21;102413.50;5049028;28;20033;-81
2023/04/16 03:17:03;;;;;;;0.10;0.10;;;;;;;10.50;71.30;102415.25;5043443;28;20546;-82
2023/04/16 03:19:29;;;;;;;0.20;0.20;;;;;;;10.53;71.42;102420.56;5050817;28;20030;-83
2023/04/16 03:21:55;;;;;;;2.40;1.08;;;;;;;10.56;70.99;102411.75;5048461;28;20044;-82
2023/04/16 03:24:21;;;;;;;0.10;0.10;;;;;;;10.47;71.97;102420.53;5046385;28;20039;-82
2023/04/16 03:26:47;;;;;;;0.10;0.10;;;;;;;10.51;71.48;102417.03;5054920;28;20029;-82
2023/04/16 03:29:14;;;;;;;0.15;0.15;;;;;;;10.53;71.33;102415.28;5053506;28;20060;-82
2023/04/16 03:31:40;;;;;;;0.10;0.10;;;;;;;10.56;71.40;102423.22;5053801;28;20017;-82
2023/04/16 03:34:06;;;;;;;0.20;0.20;;;;;;;10.55;71.59;102420.56;5053392;28;20036;-83
2023/04/16 03:36:32;;;;;;;0.10;0.10;;;;;;;10.51;71.76;102417.91;5047923;28;20029;-82
2023/04/16 03:38:58;;;;;;;0.10;0.10;;;;;;;10.49;71.75;102418.75;5046470;28;20060;-82
2023/04/16 03:41:24;;;;;;;22.25;2.25;;;;;;;10.46;72.12;102424.06;5048039;28;20068;-83
2023/04/16 03:43:50;;;;;;;0.10;0.10;;;;;;;10.47;71.86;102418.75;5047140;28;20488;-82
2023/04/16 03:46:16;;;;;;;0.10;0.10;;;;;;;10.45;71.99;102430.25;5049316;28;20468;-85
2023/04/16 03:48:42;;;;;;;3.33;3.03;;;;;;;10.45;72.34;102425.81;5053244;28;20066;-82
2023/04/16 03:51:08;;;;;;;0.10;0.10;;;;;;;10.42;71.97;102427.56;5052560;28;20032;-85
2023/04/16 03:53:35;;;;;;;0.13;0.13;;;;;;;10.43;72.39;102429.31;5051802;28;20025;-81
2023/04/16 03:56:01;;;;;;;0.32;0.32;;;;;;;10.44;71.47;102421.41;5046049;28;20543;-83
2023/04/16 03:58:27;;;;;;;2.08;0.52;;;;;;;10.35;72.64;102427.50;5052410;28;20028;-84
2023/04/16 04:00:54;;;;;;;0.10;0.10;;;;;;;10.47;71.71;102424.06;5045434;28;20499;-84
2023/04/16 04:03:22;;;;;;;0.10;0.10;;;;;;;10.45;71.98;102422.28;5052650;28;20384;-84
2023/04/16 04:05:48;;;;;;;0.20;0.20;;;;;;;10.46;71.99;102426.72;5052123;28;20017;-83
2023/04/16 04:08:14;;;;;;;0.10;0.10;;;;;;;10.40;72.08;102419.59;5043831;28;20496;-84
2023/04/16 04:10:40;;;;;;;0.63;0.63;;;;;;;10.45;71.85;102416.97;5047874;28;20029;-84
2023/04/16 04:13:06;;;;;;;0.35;0.35;;;;;;;10.43;72.29;102419.63;5051502;28;20037;-84
2023/04/16 04:15:33;;;;;;;0.10;0.10;;;;;;;10.34;72.68;102420.44;5045742;28;21454;-84
2023/04/16 04:17:59;;;;;;;0.10;0.10;;;;;;;10.44;72.20;102428.47;5051041;28;20043;-84
2023/04/16 04:20:25;;;;;;;0.32;0.32;;;;;;;10.46;72.24;102424.06;5055852;28;20112;-84
2023/04/16 04:22:51;;;;;;;0.10;0.10;;;;;;;10.46;72.68;102427.59;5047566;28;20112;-84
2023/04/16 04:25:17;;;;;;;0.10;0.10;;;;;;;10.46;72.61;102424.06;5046740;28;20026;-84
2023/04/16 04:27:43;;;;;;;0.10;0.10;;;;;;;10.51;72.08;102433.78;5049573;28;20575;-84
2023/04/16 04:30:10;;;;;;;0.10;0.10;;;;;;;10.45;72.64;102432.88;5046410;28;20504;-84
2023/04/16 04:32:36;;;;;;;0.10;0.10;;;;;;;10.54;72.29;102432.06;5045119;28;20250;-84
2023/04/16 04:35:03;;;;;;;0.30;0.30;;;;;;;10.49;72.48;102434.66;5043820;28;20679;-85
2023/04/16 04:37:29;;;;;;;0.10;0.10;;;;;;;10.54;72.00;102430.28;5049804;28;20119;-85
2023/04/16 04:39:55;;;;;;;0.00;0.00;;;;;;;10.55;72.21;102434.69;5048628;28;20141;-84
2023/04/16 04:42:21;;;;;;;0.10;0.10;;;;;;;10.59;71.97;102436.50;5047772;28;20134;-84
2023/04/16 04:44:47;;;;;;;0.10;0.10;;;;;;;10.46;72.49;102438.19;5048262;28;20108;-84
2023/04/16 04:47:14;;;;;;;0.17;0.17;;;;;;;10.48;72.41;102438.19;5045892;28;20041;-85
2023/04/16 04:49:40;;;;;;;0.10;0.10;;;;;;;10.42;72.97;102444.34;5050484;28;20577;-85
2023/04/16 04:52:07;;;;;;;0.10;0.10;;;;;;;10.52;72.45;102442.66;5050432;28;20033;-84
2023/04/16 04:54:33;;;;;;;0.60;0.60;;;;;;;10.60;71.88;102440.91;5049297;28;20033;-85
2023/04/16 04:57:00;;;;;;;0.10;0.10;;;;;;;10.59;72.18;102441.81;5052897;28;20036;-85
2023/04/16 04:59:26;;;;;;;0.10;0.10;;;;;;;10.63;72.35;102448.00;5049787;28;20704;-84
2023/04/16 05:01:52;;;;;;;0.10;0.10;;;;;;;10.54;72.47;102443.53;5046987;28;20036;-85
2023/04/16 05:04:18;;;;;;;0.10;0.10;;;;;;;10.41;72.99;102447.00;5048440;28;20017;-85
2023/04/16 05:06:45;;;;;;;0.20;0.20;;;;;;;10.54;72.14;102447.94;5047631;28;20029;-84
2023/04/16 05:09:12;;;;;;;0.10;0.10;;;;;;;10.49;72.61;102451.47;5052368;28;20192;-84
2023/04/16 05:11:40;;;;;;;0.10;0.10;;;;;;;10.52;72.55;102450.59;5051195;28;20033;-85
2023/04/16 05:14:06;;;;;;;0.13;0.13;;;;;;;10.56;72.41;102455.03;5050780;28;20037;-84
2023/04/16 05:16:35;;;;;;;0.17;0.17;;;;;;;10.56;72.32;102452.38;5056083;28;20009;-84
2023/04/16 05:19:01;;;;;;;0.10;0.10;;;;;;;10.59;72.53;102452.41;5068935;28;20037;-85
2023/04/16 05:21:27;;;;;;;0.10;0.10;;;;;;;10.62;72.50;102452.41;5056888;28;20020;-85
2023/04/16 05:23:53;;;;;;;0.82;0.82;;;;;;;10.65;72.57;102456.84;5058392;28;20407;-85
2023/04/16 05:26:20;;;;;;;0.35;0.35;;;;;;;10.67;72.19;102466.59;5053994;28;20033;-85
2023/04/16 05:28:46;;;;;;;0.10;0.10;;;;;;;10.59;72.58;102462.13;5057534;28;20081;-85
2023/04/16 05:31:12;;;;;;;0.10;0.10;;;;;;;10.63;72.32;102464.81;5054322;28;20033;-85
2023/04/16 05:33:38;;;;;;;0.10;0.10;;;;;;;10.46;72.60;102461.16;5055536;28;20112;-84
2023/04/16 05:36:04;;;;;;;0.10;0.10;;;;;;;10.56;72.49;102468.28;5057950;28;20044;-84
2023/04/16 05:38:30;;;;;;;0.13;0.13;;;;;;;10.56;72.49;102468.28;5055430;28;20033;-85
2023/04/16 05:40:58;;;;;;;0.10;0.10;;;;;;;10.54;72.69;102466.50;5053885;28;20515;-85
2023/04/16 05:43:24;;;;;;;0.22;0.22;;;;;;;10.57;72.38;102469.19;5053667;28;20021;-85
2023/04/16 05:45:50;;;;;;;0.32;0.32;;;;;;;10.62;72.11;102468.31;5053740;28;20035;-84
2023/04/16 05:48:16;;;;;;;0.10;0.10;;;;;;;10.59;72.10;102470.97;5054679;28;20475;-85
2023/04/16 05:50:42;;;;;;;0.10;0.10;;;;;;;10.60;72.21;102467.41;5056991;28;20033;-85
2023/04/16 05:53:09;;;;;;;0.10;0.10;;;;;;;10.69;72.40;102482.50;5054596;28;20037;-85
2023/04/16 05:55:36;;;;;;;0.10;0.10;;;;;;;10.64;71.92;102473.63;5044880;28;20399;-85
2023/04/16 05:58:03;;;;;;;0.10;0.10;;;;;;;10.65;72.16;102476.31;5049589;28;20036;-84
2023/04/16 06:00:31;;;;;;;0.10;0.10;;;;;;;10.65;71.85;102473.66;5050632;28;20040;-85
2023/04/16 06:02:57;;;;;;;0.10;0.10;;;;;;;10.63;72.22;102470.09;5047439;28;20017;-84
2023/04/16 06:05:25;;;;;;;0.10;0.10;;;;;;;10.53;72.13;102481.53;5054271;28;20071;-85
2023/04/16 06:07:52;;;;;;;0.10;0.10;;;;;;;10.58;72.44;102481.53;5051858;28;20060;-84
2023/04/16 06:10:18;;;;;;;0.10;0.10;;;;;;;10.52;72.49;102493.00;5045965;28;20029;-84
2023/04/16 06:12:44;;;;;;;0.10;0.10;;;;;;;10.33;72.65;102482.25;5042838;28;20029;-85
2023/04/16 06:15:10;;;;;;;0.10;0.10;;;;;;;10.53;72.46;102497.44;5045867;28;20040;-84
2023/04/16 06:17:36;;;;;;;0.52;0.52;;;;;;;10.57;72.22;102495.69;5052050;28;20040;-84
2023/04/16 06:20:03;;;;;;;0.10;0.10;;;;;;;10.63;72.00;102495.69;5054946;28;20036;-85
2023/04/16 06:22:29;;;;;;;0.10;0.10;;;;;;;10.62;72.18;102501.91;5056145;28;20021;-85
2023/04/16 06:24:55;;;;;;;0.10;0.10;;;;;;;10.67;72.01;102493.09;5052524;28;20071;-84
2023/04/16 06:27:22;;;;;;;0.10;0.10;;;;;;;10.65;72.17;102492.22;5052471;28;20029;-85
2023/04/16 06:29:48;;;;;;;0.10;0.10;;;;;;;10.65;72.15;102500.16;5050179;28;20021;-84
2023/04/16 06:32:16;;;;;;;0.10;0.10;;;;;;;10.65;71.81;102500.16;5048438;28;20029;-84
2023/04/16 06:34:42;;;;;;;0.15;0.15;;;;;;;10.67;72.05;102503.69;5052822;28;20039;-84
2023/04/16 06:37:08;;;;;;;0.10;0.10;;;;;;;10.64;71.87;102503.69;5049022;28;20083;-86
2023/04/16 06:39:34;;;;;;;0.30;0.30;;;;;;;10.71;72.18;102511.69;5047118;28;20033;-85
2023/04/16 06:42:00;;;;;;;0.15;0.15;;;;;;;10.66;72.10;102514.28;5052168;28;20025;-84
2023/04/16 06:44:26;;;;;;;0.52;0.52;;;;;;;10.73;72.18;102517.84;5049767;28;20431;-84
2023/04/16 06:46:52;;;;;;;0.10;0.10;;;;;;;10.75;71.85;102518.78;5046398;28;20131;-84
2023/04/16 06:49:18;;;;;;;0.10;0.10;;;;;;;10.59;72.16;102510.72;5050759;28;20041;-83
2023/04/16 06:51:44;;;;;;;0.22;0.22;;;;;;;10.72;72.25;102510.81;5050586;28;20025;-85
2023/04/16 06:54:10;;;;;;;0.85;0.85;;;;;;;10.83;72.22;102514.41;5057250;28;20127;-84
2023/04/16 06:56:36;;;;;;;2.00;1.17;;;;;;;10.81;72.38;102522.34;5052263;28;20036;-83
2023/04/16 06:59:03;;;;;;;0.30;0.30;;;;;;;10.85;71.86;102512.63;5060181;28;20040;-84
2023/04/16 07:01:30;;;;;;;0.20;0.20;;;;;;;10.94;71.88;102518.00;5051274;28;20025;-84
2023/04/16 07:03:57;;;;;;;0.20;0.20;;;;;;;10.89;71.60;102521.50;5049489;28;20048;-85
2023/04/16 07:06:23;;;;;;;0.10;0.10;;;;;;;10.90;71.91;102513.53;5052273;28;20040;-84
2023/04/16 07:08:49;;;;;;;0.55;0.55;;;;;;;10.96;71.74;102523.31;5053079;28;20029;-84
2023/04/16 07:11:18;;;;;;;0.10;0.10;;;;;;;10.99;71.63;102524.22;5050972;28;20098;-84
2023/04/16 07:13:44;;;;;;;0.22;0.22;;;;;;;10.98;71.64;102529.53;5052400;28;20025;-84
2023/04/16 07:16:10;;;;;;;0.28;0.28;;;;;;;11.07;71.20;102520.72;5051544;28;20656;-84
2023/04/16 07:18:36;;;;;;;0.20;0.20;;;;;;;11.11;71.49;102525.16;5048282;28;20396;-85
2023/04/16 07:21:05;;;;;;;0.15;0.15;;;;;;;11.16;71.45;102523.41;5052805;28;20044;-84
2023/04/16 07:23:31;;;;;;;0.57;0.57;;;;;;;11.13;71.41;102528.72;5055581;28;20020;-85
2023/04/16 07:25:57;;;;;;;0.10;0.10;;;;;;;11.15;71.24;102526.94;5057625;28;20029;-84
2023/04/16 07:28:24;;;;;;;0.10;0.10;;;;;;;11.13;71.39;102534.03;5058107;28;20404;-83
2023/04/16 07:30:50;;;;;;;0.10;0.10;;;;;;;11.19;70.83;102539.34;5055208;28;20522;-85
2023/04/16 07:33:16;;;;;;;0.10;0.10;;;;;;;11.12;71.16;102532.25;5053163;28;20033;-85
2023/04/16 07:35:43;;;;;;;0.57;0.57;;;;;;;11.09;71.04;102526.91;5057122;28;20028;-85
2023/04/16 07:38:09;;;;;;;0.10;0.10;;;;;;;11.17;71.04;102541.09;5055310;28;20028;-84
2023/04/16 07:40:36;;;;;;;0.10;0.10;;;;;;;11.22;70.85;102533.16;5055079;28;20041;-84
2023/04/16 07:43:02;;;;;;;0.10;0.10;;;;;;;11.23;71.04;102530.53;5054619;28;20029;-85
2023/04/16 07:45:28;;;;;;;0.10;0.10;;;;;;;11.20;71.09;102530.50;5047764;28;20374;-84
2023/04/16 07:47:55;;;;;;;0.10;0.10;;;;;;;11.15;70.91;102540.19;5052743;28;20029;-84
2023/04/16 07:50:21;;;;;;;0.45;0.45;;;;;;;11.14;71.19;102535.75;5054191;28;20045;-84
2023/04/16 07:52:47;;;;;;;0.10;0.10;;;;;;;11.17;71.22;102549.06;5057215;28;20086;-85
2023/04/16 07:55:14;;;;;;;0.73;0.73;;;;;;;11.17;70.94;102543.75;5054387;28;20033;-85
2023/04/16 07:57:40;;;;;;;0.10;0.10;;;;;;;11.27;71.20;102553.53;5057637;28;20037;-84
2023/04/16 08:00:08;;;;;;;0.10;0.10;;;;;;;11.32;70.99;102549.13;5055798;28;20435;-85
2023/04/16 08:02:34;;;;;;;0.20;0.20;;;;;;;11.26;70.63;102546.44;5053131;28;20067;-85
2023/04/16 08:05:00;;;;;;;0.25;0.25;;;;;;;11.36;70.64;102552.66;5049052;28;20086;-84
2023/04/16 08:07:26;;;;;;;0.15;0.15;;;;;;;11.26;70.64;102557.06;5049841;28;20029;-85
2023/04/16 08:09:52;;;;;;;0.38;0.38;;;;;;;11.34;70.37;102551.81;5050833;28;20064;-85
2023/04/16 08:12:19;;;;;;;0.30;0.30;;;;;;;11.38;70.16;102560.66;5055185;28;20047;-85
2023/04/16 08:14:46;;;;;;;1.30;1.30;;;;;;;11.39;70.52;102563.31;5054279;28;20025;-84
2023/04/16 08:17:13;;;;;;;4.03;2.42;;;;;;;11.42;70.30;102565.09;5047979;28;20060;-87
2023/04/16 08:19:40;;;;;;;0.20;0.20;;;;;;;11.51;70.57;102578.38;5054555;28;20040;-85
2023/04/16 08:22:06;;;;;;;0.20;0.20;;;;;;;11.57;70.26;102578.41;5061775;28;20052;-84
2023/04/16 08:24:32;;;;;;;0.10;0.10;;;;;;;11.62;70.08;102581.09;5071693;28;20033;-81
2023/04/16 08:26:58;;;;;;;0.10;0.10;;;;;;;11.61;70.17;102590.84;5066253;28;20045;-84
2023/04/16 08:29:25;;;;;;;0.13;0.13;;;;;;;11.64;69.91;102584.66;5071695;28;20037;-85
2023/04/16 08:31:53;;;;;;;0.10;0.10;;;;;;;11.51;70.00;102590.78;5075510;28;20037;-85
2023/04/16 08:34:20;;;;;;;0.10;0.10;;;;;;;11.63;69.54;102577.56;5082794;28;20033;-82
2023/04/16 08:36:46;;;;;;;0.43;0.43;;;;;;;11.73;69.45;102583.78;5070965;28;20028;-86
2023/04/16 08:39:12;;;;;;;0.95;0.95;;;;;;;11.76;69.55;102579.38;5061230;28;20044;-86
2023/04/16 08:41:42;;;;;;;0.10;0.10;;;;;;;11.73;69.69;102589.97;5052718;28;20038;-84
2023/04/16 08:44:15;;;;;;;2.47;1.13;;;;;;;11.79;69.66;102584.69;5061127;28;20035;-83
2023/04/16 08:46:42;;;;;;;0.70;0.70;;;;;;;11.90;68.98;102592.69;5058088;28;20029;-84
2023/04/16 08:49:15;;;;;;;0.10;0.10;;;;;;;11.96;69.04;102587.44;5057868;28;20071;-86
2023/04/16 08:51:44;;;;;;;0.10;0.10;;;;;;;11.95;69.01;102590.03;5055373;28;20036;-84
2023/04/16 08:54:13;;;;;;;0.17;0.17;;;;;;;12.00;68.82;102592.75;5048068;28;20037;-87
2023/04/16 08:56:41;;;;;;;2.88;2.63;;;;;;;12.10;69.09;102589.19;5055424;28;20041;-87
2023/04/16 08:59:09;;;;;;;0.10;0.10;;;;;;;12.14;68.53;102594.53;5069781;28;20061;-87
2023/04/16 09:01:37;;;;;;;0.10;0.10;;;;;;;11.97;68.12;102597.19;5065011;28;20422;-87
2023/04/16 09:04:05;;;;;;;0.35;0.35;;;;;;;12.05;68.64;102594.53;5052253;28;20025;-87
2023/04/16 09:06:33;;;;;;;0.10;0.10;;;;;;;12.18;68.18;102598.09;5059027;28;20522;-87
2023/04/16 09:09:03;;;;;;;1.00;1.00;;;;;;;12.19;68.28;102604.31;5061922;28;20029;-87
2023/04/16 09:11:29;;;;;;;2.67;0.70;;;;;;;12.24;67.98;102600.75;5055178;28;20032;-87
2023/04/16 09:13:56;;;;;;;0.10;0.10;;;;;;;12.26;67.91;102609.63;5055985;28;20124;-87
2023/04/16 09:16:23;;;;;;;1.33;1.20;;;;;;;12.26;67.62;102606.06;5062516;28;20040;-88
2023/04/16 09:18:51;;;;;;;0.35;0.35;;;;;;;12.26;67.80;102606.97;5058005;28;20032;-88
2023/04/16 09:21:18;;;;;;;0.20;0.20;;;;;;;12.20;67.82;102611.38;5057864;28;20040;-88
2023/04/16 09:23:46;;;;;;;0.65;0.65;;;;;;;12.22;68.00;102604.28;5058058;28;20040;-87
2023/04/16 09:26:12;;;;;;;2.47;1.20;;;;;;;12.22;67.92;102605.16;5049232;28;20147;-87
2023/04/16 09:28:40;;;;;;;0.10;0.10;;;;;;;12.25;67.85;102612.25;5056556;28;20029;-87
2023/04/16 09:34:06;;;;;;;2.17;2.00;;;;;;;12.39;67.79;102615.81;5091083;27;20459;-79
2023/04/16 09:36:34;;;;;;;0.15;0.15;;;;;;;12.26;67.33;102612.28;5094221;28;20059;-81
2023/04/16 09:39:00;;;;;;;0.08;0.08;;;;;;;12.39;67.67;102622.94;5097823;28;20024;-81
2023/04/16 09:41:29;;;;;;;0.10;0.10;;;;;;;12.44;68.10;102618.50;5106709;28;21903;-81
2023/04/16 09:46:35;;;;;;;1.02;0.80;;;;;;;12.47;67.29;102621.16;5089719;27;20051;-80
2023/04/16 09:49:12;;;;;;;0.57;0.47;;;;;;;12.56;67.36;102620.25;5092174;28;20480;-81
2023/04/16 09:51:41;;;;;;;0.43;0.43;;;;;;;12.62;67.19;102621.16;5091438;28;20067;-82
2023/04/16 09:54:08;;;;;;;1.60;0.52;;;;;;;12.63;67.54;102630.03;5091008;28;20508;-80
2023/04/16 09:56:40;;;;;;;0.30;0.25;;;;;;;12.69;67.16;102627.34;5090100;28;20050;-81
2023/04/16 09:59:07;;;;;;;;;;;;;;;12.71;65.96;102630.91;5087936;28;20029;-81
2023/04/16 10:01:35;;;;;;;0.55;0.55;;;;;;;12.55;66.58;102627.38;5086610;28;19916;-78
2023/04/16 10:04:01;;;;;;;0.10;0.10;;;;;;;12.42;66.95;102629.13;5091033;28;20025;-80
2023/04/16 10:06:28;;;;;;;0.10;0.10;;;;;;;12.56;66.82;102631.81;5089403;28;20508;-80
2023/04/16 10:08:55;;;;;;;0.10;0.10;;;;;;;12.52;66.91;102624.69;5090512;28;20044;-81
2023/04/16 10:11:22;;;;;;;0.60;0.60;;;;;;;12.62;66.88;102641.53;5087989;28;20024;-78
2023/04/16 10:13:48;;;;;;;0.95;0.40;;;;;;;12.49;66.21;102645.09;5089480;28;20032;-80
2023/04/16 10:16:15;;;;;;;0.45;0.45;;;;;;;12.56;66.37;102631.81;5082462;28;20024;-81
2023/04/16 10:18:43;;;;;;;0.13;0.13;;;;;;;12.66;66.50;102645.09;5089452;28;20393;-81
2023/04/16 10:21:11;;;;;;;0.17;0.17;;;;;;;12.69;67.04;102647.75;5086108;28;20387;-81
2023/04/16 10:23:39;;;;;;;0.10;0.10;;;;;;;12.70;66.26;102649.53;5085850;28;20025;-81
2023/04/16 10:26:05;;;;;;;0.10;0.10;;;;;;;12.73;66.07;102655.72;5075350;28;20017;-82
2023/04/16 10:28:34;;;;;;;4.90;1.35;;;;;;;12.73;66.60;102654.84;5072761;28;20032;-81
2023/04/16 10:31:04;;;;;;;0.10;0.10;;;;;;;12.72;66.10;102653.06;5077813;28;20111;-79
2023/04/16 10:33:36;;;;;;;0.30;0.30;;;;;;;12.69;66.25;102653.09;5075959;28;20029;-78
2023/04/16 10:38:51;;;;;;;1.05;1.02;;;;;;;12.68;66.40;102651.31;5114749;27;1216126;-80
2023/04/16 10:41:22;;;;;;;;;;;;;;;12.80;66.25;102651.31;5121388;27;20045;-80
2023/04/16 10:43:49;;;;;;;0.15;0.15;;;;;;;12.68;66.44;102653.97;5121116;28;19969;-80
2023/04/16 10:49:27;;;;;;;0.17;0.17;;;;;;;12.84;66.67;102658.38;5084157;27;20781;-80
2023/04/16 10:52:11;;;;;;;0.63;0.63;;;;;;;12.85;66.53;102656.63;5050285;28;20041;-79
2023/04/16 10:54:39;;;;;;;0.20;0.20;;;;;;;12.83;65.92;102656.59;5055546;28;20029;-80
2023/04/16 10:57:07;;;;;;;0.10;0.10;;;;;;;12.83;66.22;102658.41;5033354;28;20108;-79
2023/04/16 10:59:35;;;;;;;2.05;0.80;;;;;;;12.88;66.45;102654.81;5040382;28;20104;-80
2023/04/16 11:02:15;;;;;;;0.10;0.10;;;;;;;12.95;66.56;102659.25;5050157;28;20031;-80
2023/04/16 11:04:54;;;;;;;0.65;0.57;;;;;;;12.94;66.47;102660.16;5048881;28;20108;-80
2023/04/16 11:07:34;;;;;;;0.95;0.95;;;;;;;12.93;66.06;102657.50;5038757;28;20069;-80
2023/04/16 11:10:04;;;;;;;0.45;0.45;;;;;;;12.89;65.69;102659.25;5049405;28;20021;-79
2023/04/16 11:15:10;;;;;;;0.10;0.10;;;;;;;12.85;66.39;102656.63;5067101;28;20398;-79
2023/04/16 11:22:57;;;;;;;0.63;0.63;;;;;;;12.85;66.10;102646.88;5080451;27;20405;-80
2023/04/16 11:25:26;;;;;;;0.10;0.10;;;;;;;12.73;66.41;102652.19;5069493;28;20088;-81
2023/04/16 11:27:52;;;;;;;0.85;0.85;;;;;;;12.79;66.83;102650.41;5063247;28;20055;-82
2023/04/16 11:30:28;;;;;;;0.10;0.10;;;;;;;12.88;66.00;102653.94;5070205;28;20036;-81
2023/04/16 11:32:54;;;;;;;0.10;0.10;;;;;;;12.90;66.10;102657.50;5071223;28;20024;-82
2023/04/16 11:35:20;;;;;;;0.20;0.20;;;;;;;12.85;66.21;102660.16;5071229;28;20036;-82
2023/04/16 11:37:47;;;;;;;0.50;0.50;;;;;;;12.88;65.69;102656.63;5070960;28;20028;-81
2023/04/16 11:40:13;;;;;;;0.10;0.10;;;;;;;12.94;66.10;102654.81;5073170;28;20393;-81
2023/04/16 11:42:41;;;;;;;3.25;1.33;;;;;;;13.00;65.71;102661.06;5071588;28;20040;-80
2023/04/16 11:45:09;;;;;;;0.88;0.70;;;;;;;13.03;66.20;102658.38;5068238;28;20544;-79